Hamburg Pearl — C6CM5 — position and weather

sailwx.info

Track history (hours):
 
Tides and Currents Weather Stations Pressure Air Temp Water Temp Dewpoint Dewpoint Depression Visibility Wind Speed Wind Dir Waves Ship Positions

Hamburg Pearl

Last reported at 2017-Oct-04 14:14 UTC. Time now 2017-Oct-20 19:46 UTC.
Position N 38°36' W 072°28'.
Warning: this ship's position is 16 days out of date.

Length 178 m; draft 10.8 m.

Type: Ship. MMSI: 311000512.

Date/timePositionNaut miles runAvg speedWind from/ knotsBaromVisibWave heightAir tempDewpointWater temp
2017-Oct-04 14:14N 38°36' W 072°28'1711.1
2017-Oct-04 12:40N 38°51' W 072°39'311.2
2017-Oct-04 12:24N 38°54' W 072°40'511.5
2017-Oct-04 12:00N 38°58' W 072°43'611.6
2017-Oct-04 11:30N 39°03' W 072°47'611.6
2017-Oct-04 11:00N 39°08' W 072°50'611.8
2017-Oct-04 10:30N 39°14' W 072°54'611.3
2017-Oct-04 10:00N 39°19' W 072°57'5 9.8
2017-Oct-04 09:30N 39°23' W 072°59'611.1
2017-Oct-04 08:57N 39°28' W 073°04'511.1
2017-Oct-04 08:31N 39°33' W 073°06'611.2
2017-Oct-04 08:00N 39°38' W 073°07'510.7
2017-Oct-04 07:30N 39°43' W 073°09'611.1
2017-Oct-04 07:00N 39°49' W 073°12'611.5
2017-Oct-04 06:31N 39°54' W 073°15'611.2
2017-Oct-04 06:00N 39°59' W 073°18'510.8
2017-Oct-04 05:30N 40°03' W 073°22'611.4
2017-Oct-04 05:00N 40°08' W 073°27'611.2
2017-Oct-04 04:30N 40°12' W 073°32'611.3
2017-Oct-04 04:00N 40°16' W 073°37'611.3
2017-Oct-04 03:30N 40°20' W 073°42'611.2
2017-Oct-04 03:00N 40°25' W 073°46'5 9.5
2017-Oct-04 02:30N 40°28' W 073°51'713.8
2017-Oct-04 02:00N 40°31' W 073°59'612.6
2017-Oct-04 01:30N 40°37' W 074°03'4 7.2
2017-Oct-04 01:00N 40°39' W 074°07'2 3.5
2017-Oct-04 00:30N 40°40' W 074°09'1 2.8
2017-Oct-03 23:59N 40°41' W 074°08'0 0.0
2017-Oct-03 23:29N 40°41' W 074°08'0 0.0
2017-Oct-03 22:59N 40°41' W 074°08'0 0.0
2017-Oct-03 22:30N 40°41' W 074°08'0 0.0
2017-Oct-03 22:00N 40°41' W 074°08'0 0.0
2017-Oct-03 21:30N 40°41' W 074°08'0 0.0
2017-Oct-03 21:00N 40°41' W 074°08'0 0.0
2017-Oct-03 20:30N 40°41' W 074°08'0 0.0
2017-Oct-03 20:00N 40°41' W 074°08'0 0.0
2017-Oct-03 19:30N 40°41' W 074°08'0 0.0
2017-Oct-03 19:00N 40°41' W 074°08'0 0.0
2017-Oct-03 18:30N 40°41' W 074°08'0 0.0
2017-Oct-03 18:00N 40°41' W 074°08'0 0.0
2017-Oct-03 17:30N 40°41' W 074°08'0 0.0
2017-Oct-03 17:00N 40°41' W 074°08'0 0.0
2017-Oct-03 16:30N 40°41' W 074°08'0 0.0
2017-Oct-03 16:00N 40°41' W 074°08'0 0.0
2017-Oct-03 15:30N 40°41' W 074°08'0 0.0
2017-Oct-03 15:00N 40°41' W 074°08'0 0.0
2017-Oct-03 14:00N 40°41' W 074°08'0 0.0
2017-Oct-03 13:30N 40°41' W 074°08'0 0.0
2017-Oct-03 13:00N 40°41' W 074°08'0 0.0
2017-Oct-03 12:30N 40°41' W 074°08'0 0.0
2017-Oct-03 12:00N 40°41' W 074°08'0 0.0
2017-Oct-03 11:30N 40°41' W 074°08'0 0.0
2017-Oct-03 11:00N 40°41' W 074°08'0 0.0
2017-Oct-03 10:30N 40°41' W 074°08'0 0.0
2017-Oct-03 10:00N 40°41' W 074°08'0 0.0
2017-Oct-03 09:30N 40°41' W 074°08'0 0.0
2017-Oct-03 09:00N 40°41' W 074°08'0 0.0
2017-Oct-03 08:30N 40°41' W 074°08'0 0.0
2017-Oct-03 08:00N 40°41' W 074°08'0 0.0
2017-Oct-03 07:30N 40°41' W 074°08'0 0.0
2017-Oct-03 07:00N 40°41' W 074°08'0 0.0
2017-Oct-03 06:30N 40°41' W 074°08'0 0.0
2017-Oct-03 06:00N 40°41' W 074°08'0 0.0
2017-Oct-03 05:30N 40°41' W 074°08'0 0.0
2017-Oct-03 05:00N 40°41' W 074°08'0 0.0
2017-Oct-03 04:30N 40°41' W 074°08'0 0.0
2017-Oct-03 04:00N 40°41' W 074°08'0 0.0
2017-Oct-03 03:30N 40°41' W 074°08'0 0.0
2017-Oct-03 03:00N 40°41' W 074°08'0 0.0
2017-Oct-03 02:30N 40°41' W 074°08'0 0.0
2017-Oct-03 02:00N 40°41' W 074°08'0 0.0
2017-Oct-03 01:30N 40°41' W 074°08'0 0.0
2017-Oct-03 01:00N 40°41' W 074°08'0 0.0
2017-Oct-03 00:30N 40°41' W 074°08'0 0.0
2017-Oct-03 00:00N 40°41' W 074°08'0 0.0
2017-Oct-02 23:30N 40°41' W 074°08'0 0.0
2017-Oct-02 23:00N 40°41' W 074°08'0 0.0
2017-Oct-02 22:30N 40°41' W 074°08'0 0.0
2017-Oct-02 22:00N 40°41' W 074°08'0 0.0
2017-Oct-02 21:30N 40°41' W 074°08'0 0.0
2017-Oct-02 21:00N 40°41' W 074°08'0 0.0
2017-Oct-02 20:30N 40°41' W 074°08'0 0.0
2017-Oct-02 20:00N 40°41' W 074°08'0 0.0
2017-Oct-02 19:30N 40°41' W 074°08'0 0.0
2017-Oct-02 19:00N 40°41' W 074°08'0 0.0
2017-Oct-02 18:30N 40°41' W 074°08'0 0.0
2017-Oct-02 18:00N 40°41' W 074°08'0 0.0
2017-Oct-02 17:30N 40°41' W 074°08'0 0.0
2017-Oct-02 17:00N 40°41' W 074°08'0 0.0
2017-Oct-02 16:30N 40°41' W 074°08'0 0.0
2017-Oct-02 16:00N 40°41' W 074°08'0 0.0
2017-Oct-02 15:30N 40°41' W 074°08'0 0.0
2017-Oct-02 15:00N 40°41' W 074°08'0 0.0
2017-Oct-02 14:30N 40°41' W 074°08'0 0.0
2017-Oct-02 14:00N 40°41' W 074°08'0 0.0
2017-Oct-02 13:30N 40°41' W 074°08'0 0.0
2017-Oct-02 13:00N 40°41' W 074°08'0 0.0
2017-Oct-02 12:30N 40°41' W 074°08'0 0.0
2017-Oct-02 12:00N 40°41' W 074°08'0 0.0
2017-Oct-02 11:30N 40°41' W 074°08'0 0.0
2017-Oct-02 11:00N 40°41' W 074°08'0 0.0
2017-Oct-02 10:30N 40°41' W 074°08'0 0.0
2017-Oct-02 10:00N 40°41' W 074°08'0 0.0
2017-Oct-02 09:30N 40°41' W 074°08'0 0.0
2017-Oct-02 09:00N 40°41' W 074°08'0 0.0
2017-Oct-02 08:30N 40°41' W 074°08'0 0.0
2017-Oct-02 08:00N 40°41' W 074°08'0 0.0
2017-Oct-02 07:30N 40°41' W 074°08'0 0.0
2017-Oct-02 07:00N 40°41' W 074°08'0 0.0
2017-Oct-02 06:30N 40°41' W 074°08'0 0.0
2017-Oct-02 06:00N 40°41' W 074°08'0 0.0
2017-Oct-02 05:30N 40°41' W 074°08'0 0.0
2017-Oct-02 05:00N 40°41' W 074°08'0 0.0
2017-Oct-02 04:30N 40°41' W 074°08'0 0.0
2017-Oct-02 04:00N 40°41' W 074°08'0 0.0
2017-Oct-02 03:30N 40°41' W 074°08'0 0.0
2017-Oct-02 03:00N 40°41' W 074°08'0 0.0
2017-Oct-02 02:30N 40°41' W 074°08'0 0.0
2017-Oct-02 02:00N 40°41' W 074°08'0 0.0
2017-Oct-02 01:30N 40°41' W 074°08'0 0.0
2017-Oct-02 01:00N 40°41' W 074°08'0 0.0
2017-Oct-02 00:30N 40°41' W 074°08'0 0.0
2017-Oct-02 00:00N 40°41' W 074°08'0 0.0
2017-Oct-01 23:30N 40°41' W 074°08'0 0.0
2017-Oct-01 23:00N 40°41' W 074°08'0 0.0
2017-Oct-01 22:30N 40°41' W 074°08'0 0.0
2017-Oct-01 22:00N 40°41' W 074°08'0 0.0
2017-Oct-01 21:30N 40°41' W 074°08'0 0.0
2017-Oct-01 21:00N 40°41' W 074°08'0 0.0
2017-Oct-01 20:30N 40°41' W 074°08'0 0.0
2017-Oct-01 20:00N 40°41' W 074°08'0 0.0
2017-Oct-01 19:30N 40°41' W 074°08'0 0.0
2017-Oct-01 19:00N 40°41' W 074°08'0 0.0
2017-Oct-01 18:30N 40°41' W 074°08'0 0.0
2017-Oct-01 18:00N 40°41' W 074°08'0 0.0
2017-Oct-01 17:30N 40°41' W 074°08'0 0.0
2017-Oct-01 17:00N 40°41' W 074°08'0 0.0
2017-Oct-01 16:30N 40°41' W 074°08'0 0.0
2017-Oct-01 16:00N 40°41' W 074°08'0 0.0
2017-Oct-01 15:30N 40°41' W 074°08'0 0.0
2017-Oct-01 15:00N 40°41' W 074°08'0 0.0
2017-Oct-01 14:30N 40°41' W 074°08'0 0.0
2017-Oct-01 14:00N 40°41' W 074°08'0 0.0
2017-Oct-01 13:30N 40°41' W 074°08'0 0.0
2017-Oct-01 13:00N 40°41' W 074°08'0 0.6
2017-Oct-01 12:30N 40°41' W 074°08'2 4.3
2017-Oct-01 12:00N 40°39' W 074°09'2 4.5
2017-Oct-01 11:30N 40°39' W 074°06'2 4.7
2017-Oct-01 11:00N 40°41' W 074°04'0 0.9
2017-Oct-01 10:30N 40°41' W 074°04'0 0.0
2017-Oct-01 10:00N 40°41' W 074°04'0 0.0
2017-Oct-01 09:30N 40°41' W 074°04'0 0.0
2017-Oct-01 09:00N 40°41' W 074°04'0 0.0
2017-Oct-01 08:30N 40°41' W 074°04'0 0.0
2017-Oct-01 08:00N 40°41' W 074°04'0 0.0
2017-Oct-01 07:30N 40°41' W 074°04'0 0.0
2017-Oct-01 07:00N 40°41' W 074°04'0 0.0
2017-Oct-01 06:30N 40°41' W 074°04'0 0.0
2017-Oct-01 06:00N 40°41' W 074°04'0 0.0
2017-Oct-01 05:30N 40°41' W 074°04'0 0.0
2017-Oct-01 05:00N 40°41' W 074°04'0 0.0
2017-Oct-01 04:30N 40°41' W 074°04'0 0.0
2017-Oct-01 04:00N 40°41' W 074°04'0 0.0
2017-Oct-01 03:30N 40°41' W 074°04'0 0.0
2017-Oct-01 03:00N 40°41' W 074°04'0 0.0
2017-Sep-30 02:00N 40°41' W 074°04'0 0.0
2017-Sep-30 01:30N 40°41' W 074°04'0 0.0
2017-Sep-30 01:00N 40°41' W 074°04'0 0.0
2017-Sep-30 00:30N 40°41' W 074°04'0 0.0
2017-Sep-30 00:00N 40°41' W 074°04'0 0.0
2017-Sep-29 23:30N 40°41' W 074°04'0 0.0
2017-Sep-29 23:00N 40°41' W 074°04'0 0.0
2017-Sep-29 22:30N 40°41' W 074°04'0 0.0
2017-Sep-29 22:00N 40°41' W 074°04'0 0.0
2017-Sep-29 21:30N 40°41' W 074°04'0 0.0
2017-Sep-29 21:00N 40°41' W 074°04'0 0.0
2017-Sep-29 20:31N 40°41' W 074°04'0 0.0
2017-Sep-29 20:00N 40°41' W 074°04'0 0.0
2017-Sep-29 19:30N 40°41' W 074°04'0 0.0
2017-Sep-29 19:00N 40°41' W 074°04'0 0.0
2017-Sep-29 18:30N 40°41' W 074°04'0 0.0
2017-Sep-29 18:00N 40°41' W 074°04'0 0.0
2017-Sep-29 17:30N 40°41' W 074°04'0 0.0
2017-Sep-29 17:00N 40°41' W 074°04'0 0.0
2017-Sep-29 16:30N 40°41' W 074°04'0 0.0
2017-Sep-29 16:00N 40°41' W 074°04'0 0.0
2017-Sep-29 15:30N 40°41' W 074°04'0 0.0
2017-Sep-29 15:00N 40°41' W 074°04'0 0.0
2017-Sep-29 14:30N 40°41' W 074°04'0 0.0
2017-Sep-29 14:00N 40°41' W 074°04'0 0.0
2017-Sep-29 13:30N 40°41' W 074°04'0 0.0
2017-Sep-29 13:00N 40°41' W 074°04'0 0.0
2017-Sep-29 12:30N 40°41' W 074°04'0 0.0
2017-Sep-29 12:01N 40°41' W 074°04'0 0.0
2017-Sep-29 11:30N 40°41' W 074°04'0 0.0
2017-Sep-29 11:00N 40°41' W 074°04'0 0.0
2017-Sep-29 10:30N 40°41' W 074°04'0 0.0
2017-Sep-29 10:00N 40°41' W 074°04'0 0.0
2017-Sep-29 09:30N 40°41' W 074°04'0 0.0
2017-Sep-29 09:00N 40°41' W 074°04'0 0.0
2017-Sep-29 08:30N 40°41' W 074°04'0 0.0
2017-Sep-29 08:00N 40°41' W 074°04'0 0.0
2017-Sep-29 07:30N 40°41' W 074°04'0 0.0
2017-Sep-29 07:00N 40°41' W 074°04'0 0.0
2017-Sep-29 06:31N 40°41' W 074°04'0 0.0
2017-Sep-29 06:00N 40°41' W 074°04'0 0.0
2017-Sep-29 05:31N 40°41' W 074°04'0 0.0
2017-Sep-29 05:00N 40°41' W 074°04'0 0.0
2017-Sep-29 04:30N 40°41' W 074°04'0 0.0
2017-Sep-29 04:00N 40°41' W 074°04'0 0.0
2017-Sep-29 03:30N 40°41' W 074°04'0 0.0
2017-Sep-29 03:00N 40°41' W 074°04'0 0.0
2017-Sep-29 02:30N 40°41' W 074°04'0 0.0
2017-Sep-29 02:00N 40°41' W 074°04'0 0.0
2017-Sep-29 01:30N 40°41' W 074°04'0 0.0
2017-Sep-29 01:00N 40°41' W 074°04'0 0.0
2017-Sep-29 00:30N 40°41' W 074°04'0 0.0
2017-Sep-29 00:01N 40°41' W 074°04'0 0.0
2017-Sep-28 23:30N 40°41' W 074°04'0 0.0
2017-Sep-28 23:00N 40°41' W 074°04'0 0.0
2017-Sep-28 22:30N 40°41' W 074°04'0 0.0
2017-Sep-28 22:00N 40°41' W 074°04'0 0.0
2017-Sep-28 21:30N 40°41' W 074°04'0 0.0
2017-Sep-28 21:00N 40°41' W 074°04'0 0.0
2017-Sep-28 20:30N 40°41' W 074°04'0 0.0
2017-Sep-28 20:01N 40°41' W 074°04'0 0.0
2017-Sep-28 19:30N 40°41' W 074°04'0 0.0
2017-Sep-28 19:00N 40°41' W 074°04'0 0.0
2017-Sep-28 18:30N 40°41' W 074°04'0 0.0
2017-Sep-28 18:00N 40°41' W 074°04'0 0.0
2017-Sep-28 17:30N 40°41' W 074°04'0 0.0
2017-Sep-28 17:00N 40°41' W 074°04'0 0.0
2017-Sep-28 16:30N 40°41' W 074°04'0 0.0
2017-Sep-28 16:00N 40°41' W 074°04'0 0.0
2017-Sep-28 15:30N 40°41' W 074°04'0 0.0
2017-Sep-28 15:00N 40°41' W 074°04'0 0.0
2017-Sep-28 14:30N 40°41' W 074°04'0 0.0
2017-Sep-28 14:00N 40°41' W 074°04'0 0.0
2017-Sep-28 13:30N 40°41' W 074°04'0 0.0
2017-Sep-28 13:00N 40°41' W 074°04'0 0.0
2017-Sep-28 12:30N 40°41' W 074°04'0 0.0
2017-Sep-28 12:00N 40°41' W 074°04'0 0.0
2017-Sep-28 11:30N 40°41' W 074°04'0 0.0
2017-Sep-28 11:00N 40°41' W 074°04'0 0.0
2017-Sep-28 10:30N 40°41' W 074°04'0 0.0
2017-Sep-28 10:00N 40°41' W 074°04'0 0.0
2017-Sep-28 09:30N 40°41' W 074°04'0 0.0
2017-Sep-28 09:00N 40°41' W 074°04'0 0.0
2017-Sep-28 08:30N 40°41' W 074°04'0 0.0
2017-Sep-28 08:00N 40°41' W 074°04'0 0.0
2017-Sep-28 07:30N 40°41' W 074°04'0 0.0
2017-Sep-28 07:00N 40°41' W 074°04'0 0.0
2017-Sep-28 06:30N 40°41' W 074°04'0 0.0
2017-Sep-28 06:00N 40°41' W 074°04'0 0.0
2017-Sep-28 05:30N 40°41' W 074°04'0 0.0
2017-Sep-28 05:00N 40°41' W 074°04'0 0.0
2017-Sep-28 04:30N 40°41' W 074°04'0 0.0
2017-Sep-28 04:00N 40°41' W 074°04'0 0.0
2017-Sep-28 03:31N 40°41' W 074°04'0 0.0
2017-Sep-28 03:00N 40°41' W 074°04'0 0.0
2017-Sep-28 02:30N 40°41' W 074°04'0 0.0
2017-Sep-28 02:00N 40°41' W 074°04'0 0.0
2017-Sep-28 01:30N 40°41' W 074°04'0 0.0
2017-Sep-28 01:00N 40°41' W 074°04'0 0.0
2017-Sep-28 00:30N 40°41' W 074°04'0 0.0
2017-Sep-28 00:01N 40°41' W 074°04'0 0.0
2017-Sep-27 23:30N 40°41' W 074°04'0 0.0
2017-Sep-27 23:01N 40°41' W 074°04'0 0.0
2017-Sep-27 22:30N 40°41' W 074°04'0 0.1
2017-Sep-27 22:00N 40°41' W 074°04'0 0.0
2017-Sep-27 21:30N 40°41' W 074°04'0 0.0
2017-Sep-27 21:00N 40°41' W 074°04'0 0.0
2017-Sep-27 20:30N 40°41' W 074°04'0 0.0
2017-Sep-27 20:00N 40°41' W 074°04'0 0.0
2017-Sep-27 19:30N 40°41' W 074°04'0 0.0
2017-Sep-27 19:00N 40°41' W 074°04'0 0.0
2017-Sep-27 18:30N 40°41' W 074°04'0 0.0
2017-Sep-27 18:00N 40°41' W 074°04'0 0.0
2017-Sep-27 17:30N 40°41' W 074°04'0 0.0
2017-Sep-27 17:00N 40°41' W 074°04'0 0.0
2017-Sep-27 16:30N 40°41' W 074°04'0 0.0
2017-Sep-27 16:00N 40°41' W 074°04'0 0.0
2017-Sep-27 15:30N 40°41' W 074°04'0 0.0
2017-Sep-27 15:00N 40°41' W 074°04'0 0.0
2017-Sep-27 14:30N 40°41' W 074°04'0 0.0
2017-Sep-27 14:00N 40°41' W 074°04'0 0.0
2017-Sep-27 13:30N 40°41' W 074°04'0 0.0
2017-Sep-27 13:00N 40°41' W 074°04'0 0.0
2017-Sep-27 12:30N 40°41' W 074°04'0 0.0
2017-Sep-27 12:00N 40°41' W 074°04'0 0.0
2017-Sep-27 11:30N 40°41' W 074°04'0 0.0
2017-Sep-27 11:00N 40°41' W 074°04'0 0.0
2017-Sep-27 10:30N 40°41' W 074°04'0 0.0
2017-Sep-27 10:00N 40°41' W 074°04'0 0.0
2017-Sep-27 09:30N 40°41' W 074°04'0 0.0
2017-Sep-27 09:00N 40°41' W 074°04'0 0.0
2017-Sep-27 08:30N 40°41' W 074°04'0 0.6
2017-Sep-27 08:00N 40°41' W 074°04'3 5.1
2017-Sep-27 07:30N 40°38' W 074°03'2 3.3
2017-Sep-27 07:00N 40°37' W 074°03'4 7.6
2017-Sep-27 06:30N 40°33' W 074°02'3 5.5
2017-Sep-27 06:00N 40°31' W 073°59'4 7.9
2017-Sep-27 05:30N 40°29' W 073°55'5 9.1
2017-Sep-27 05:01N 40°28' W 073°49'4 7.3
2017-Sep-27 04:30N 40°28' W 073°44'4 8.9
2017-Sep-27 04:00N 40°29' W 073°38'0 0.9
2017-Sep-27 03:29N 40°30' W 073°39'0 0.1
2017-Sep-27 02:59N 40°30' W 073°39'0 0.0
2017-Sep-27 02:29N 40°30' W 073°39'0 0.0
2017-Sep-27 01:59N 40°30' W 073°39'0 0.0
2017-Sep-27 01:20N 40°30' W 073°39'0 0.0
2017-Sep-27 00:59N 40°30' W 073°39'0 0.1
2017-Sep-27 00:23N 40°30' W 073°39'0 0.1
2017-Sep-26 23:59N 40°30' W 073°39'0 0.1
2017-Sep-26 23:08N 40°30' W 073°38'0 0.1
2017-Sep-26 22:53N 40°30' W 073°38'0 0.0
2017-Sep-26 22:29N 40°30' W 073°38'0 0.0
2017-Sep-26 21:53N 40°30' W 073°38'0 0.1
2017-Sep-26 21:11N 40°30' W 073°38'0 0.1
2017-Sep-26 20:59N 40°30' W 073°38'0 0.1
2017-Sep-26 20:29N 40°30' W 073°38'0 0.1
2017-Sep-26 19:59N 40°30' W 073°38'0 0.0
2017-Sep-26 19:29N 40°30' W 073°38'0 0.1
2017-Sep-26 18:59N 40°30' W 073°38'0 0.0
2017-Sep-26 14:17N 40°30' W 073°39'0 0.1
2017-Sep-26 13:53N 40°30' W 073°39'0 0.0
2017-Sep-26 13:23N 40°30' W 073°39'0 0.0
2017-Sep-26 12:59N 40°30' W 073°39'0 0.0
2017-Sep-26 12:29N 40°30' W 073°39'0 0.0
2017-Sep-26 11:56N 40°30' W 073°39'0 0.0
2017-Sep-26 11:26N 40°30' W 073°39'0 0.0
2017-Sep-26 10:38N 40°30' W 073°39'0 0.0
2017-Sep-26 10:29N 40°30' W 073°39'0 0.1
2017-Sep-26 09:32N 40°30' W 073°38'0 0.1
2017-Sep-26 09:20N 40°30' W 073°38'0 0.0
2017-Sep-26 08:44N 40°30' W 073°38'0 0.0
2017-Sep-26 08:26N 40°30' W 073°38'0 0.2
2017-Sep-26 07:44N 40°30' W 073°38'0 0.2
2017-Sep-26 07:26N 40°30' W 073°38'0 0.1
2017-Sep-26 06:59N 40°30' W 073°38'0 0.1
2017-Sep-26 06:20N 40°30' W 073°38'0 0.0
2017-Sep-26 05:59N 40°30' W 073°38'0 0.0
2017-Sep-26 05:29N 40°30' W 073°39'0 0.1
2017-Sep-26 04:59N 40°30' W 073°39'0 0.0
2017-Sep-26 04:29N 40°30' W 073°39'0 0.0
2017-Sep-26 03:53N 40°30' W 073°39'0 0.0
2017-Sep-26 03:29N 40°30' W 073°39'0 0.0
2017-Sep-26 02:59N 40°30' W 073°39'0 0.0
2017-Sep-26 02:14N 40°30' W 073°39'0 0.0
2017-Sep-26 00:38N 40°30' W 073°39'0 0.0
2017-Sep-26 00:26N 40°30' W 073°39'0 0.0
2017-Sep-25 23:59N 40°30' W 073°39'0 0.0
2017-Sep-25 23:29N 40°30' W 073°38'0 0.0
2017-Sep-25 22:05N 40°30' W 073°38'0 0.0
2017-Sep-25 21:59N 40°30' W 073°38'0 0.1
2017-Sep-25 21:29N 40°30' W 073°38'0 0.0
2017-Sep-25 20:59N 40°30' W 073°38'0 0.0
2017-Sep-25 20:26N 40°30' W 073°38'0 0.1
2017-Sep-25 19:59N 40°30' W 073°38'0 0.0
2017-Sep-25 19:26N 40°30' W 073°38'0 0.0
2017-Sep-25 18:59N 40°30' W 073°38'0 0.0
2017-Sep-25 18:29N 40°30' W 073°38'0 0.0
2017-Sep-25 17:50N 40°30' W 073°38'0 0.0
2017-Sep-25 17:26N 40°30' W 073°38'0 0.0
2017-Sep-25 16:02N 40°30' W 073°38'0 0.0
2017-Sep-25 15:59N 40°30' W 073°38'0 0.0
2017-Sep-25 15:23N 40°30' W 073°39'0 0.0
2017-Sep-25 14:53N 40°30' W 073°39'0 0.0
2017-Sep-25 13:50N 40°30' W 073°39'0 0.0
2017-Sep-25 13:26N 40°30' W 073°39'0 0.0
2017-Sep-25 12:59N 40°30' W 073°39'0 0.0
2017-Sep-25 10:23N 40°30' W 073°38'0 0.1
2017-Sep-25 09:35N 40°30' W 073°38'0 0.0
2017-Sep-25 09:08N 40°30' W 073°38'0 0.0
2017-Sep-25 07:23N 40°30' W 073°38'0 0.1
2017-Sep-25 06:59N 40°30' W 073°38'0 0.1
2017-Sep-25 06:29N 40°30' W 073°38'0 0.1
2017-Sep-25 05:59N 40°30' W 073°38'0 0.1
2017-Sep-25 05:23N 40°30' W 073°38'0 0.1
2017-Sep-25 04:47N 40°30' W 073°38'0 0.0
2017-Sep-25 04:29N 40°30' W 073°38'0 0.0
2017-Sep-25 03:59N 40°30' W 073°38'0 0.0
2017-Sep-25 03:29N 40°30' W 073°38'0 0.0
2017-Sep-25 02:59N 40°30' W 073°38'0 0.0
2017-Sep-25 02:26N 40°30' W 073°38'0 0.0
2017-Sep-25 01:32N 40°30' W 073°38'0 0.0
2017-Sep-25 01:11N 40°30' W 073°38'0 0.0
2017-Sep-25 00:59N 40°30' W 073°38'0 0.0
2017-Sep-25 00:29N 40°30' W 073°38'0 0.0
2017-Sep-24 23:59N 40°30' W 073°39'0 0.0
2017-Sep-24 23:26N 40°30' W 073°38'0 0.0
2017-Sep-24 22:53N 40°30' W 073°39'0 0.0
2017-Sep-24 22:29N 40°30' W 073°38'0 0.2
2017-Sep-24 21:59N 40°30' W 073°38'0 0.1
2017-Sep-24 21:29N 40°30' W 073°38'0 0.1
2017-Sep-24 19:26N 40°30' W 073°38'  
Track history (hours):
 
Tides and Currents Weather Stations Pressure Air Temp Water Temp Dewpoint Dewpoint Depression Visibility Wind Speed Wind Dir Waves Ship Positions

Hamburg Pearl

Last reported at 2017-Oct-04 14:14 UTC. Time now 2017-Oct-20 19:46 UTC.
Position N 38°36' W 072°28'.
Warning: this ship's position is 16 days out of date.

Length 178 m; draft 10.8 m.

Type: Ship. MMSI: 311000512.

Date/timePositionNaut miles runAvg speedWind from/ knotsBaromVisibWave heightAir tempDewpointWater temp
2017-Oct-04 14:14N 38°36' W 072°28'1711.1
2017-Oct-04 12:40N 38°51' W 072°39'311.2
2017-Oct-04 12:24N 38°54' W 072°40'511.5
2017-Oct-04 12:00N 38°58' W 072°43'611.6
2017-Oct-04 11:30N 39°03' W 072°47'611.6
2017-Oct-04 11:00N 39°08' W 072°50'611.8
2017-Oct-04 10:30N 39°14' W 072°54'611.3
2017-Oct-04 10:00N 39°19' W 072°57'5 9.8
2017-Oct-04 09:30N 39°23' W 072°59'611.1
2017-Oct-04 08:57N 39°28' W 073°04'511.1
2017-Oct-04 08:31N 39°33' W 073°06'611.2
2017-Oct-04 08:00N 39°38' W 073°07'510.7
2017-Oct-04 07:30N 39°43' W 073°09'611.1
2017-Oct-04 07:00N 39°49' W 073°12'611.5
2017-Oct-04 06:31N 39°54' W 073°15'611.2
2017-Oct-04 06:00N 39°59' W 073°18'510.8
2017-Oct-04 05:30N 40°03' W 073°22'611.4
2017-Oct-04 05:00N 40°08' W 073°27'611.2
2017-Oct-04 04:30N 40°12' W 073°32'611.3
2017-Oct-04 04:00N 40°16' W 073°37'611.3
2017-Oct-04 03:30N 40°20' W 073°42'611.2
2017-Oct-04 03:00N 40°25' W 073°46'5 9.5
2017-Oct-04 02:30N 40°28' W 073°51'713.8
2017-Oct-04 02:00N 40°31' W 073°59'612.6
2017-Oct-04 01:30N 40°37' W 074°03'4 7.2
2017-Oct-04 01:00N 40°39' W 074°07'2 3.5
2017-Oct-04 00:30N 40°40' W 074°09'1 2.8
2017-Oct-03 23:59N 40°41' W 074°08'0 0.0
2017-Oct-03 23:29N 40°41' W 074°08'0 0.0
2017-Oct-03 22:59N 40°41' W 074°08'0 0.0
2017-Oct-03 22:30N 40°41' W 074°08'0 0.0
2017-Oct-03 22:00N 40°41' W 074°08'0 0.0
2017-Oct-03 21:30N 40°41' W 074°08'0 0.0
2017-Oct-03 21:00N 40°41' W 074°08'0 0.0
2017-Oct-03 20:30N 40°41' W 074°08'0 0.0
2017-Oct-03 20:00N 40°41' W 074°08'0 0.0
2017-Oct-03 19:30N 40°41' W 074°08'0 0.0
2017-Oct-03 19:00N 40°41' W 074°08'0 0.0
2017-Oct-03 18:30N 40°41' W 074°08'0 0.0
2017-Oct-03 18:00N 40°41' W 074°08'0 0.0
2017-Oct-03 17:30N 40°41' W 074°08'0 0.0
2017-Oct-03 17:00N 40°41' W 074°08'0 0.0
2017-Oct-03 16:30N 40°41' W 074°08'0 0.0
2017-Oct-03 16:00N 40°41' W 074°08'0 0.0
2017-Oct-03 15:30N 40°41' W 074°08'0 0.0
2017-Oct-03 15:00N 40°41' W 074°08'0 0.0
2017-Oct-03 14:00N 40°41' W 074°08'0 0.0
2017-Oct-03 13:30N 40°41' W 074°08'0 0.0
2017-Oct-03 13:00N 40°41' W 074°08'0 0.0
2017-Oct-03 12:30N 40°41' W 074°08'0 0.0
2017-Oct-03 12:00N 40°41' W 074°08'0 0.0
2017-Oct-03 11:30N 40°41' W 074°08'0 0.0
2017-Oct-03 11:00N 40°41' W 074°08'0 0.0
2017-Oct-03 10:30N 40°41' W 074°08'0 0.0
2017-Oct-03 10:00N 40°41' W 074°08'0 0.0
2017-Oct-03 09:30N 40°41' W 074°08'0 0.0
2017-Oct-03 09:00N 40°41' W 074°08'0 0.0
2017-Oct-03 08:30N 40°41' W 074°08'0 0.0
2017-Oct-03 08:00N 40°41' W 074°08'0 0.0
2017-Oct-03 07:30N 40°41' W 074°08'0 0.0
2017-Oct-03 07:00N 40°41' W 074°08'0 0.0
2017-Oct-03 06:30N 40°41' W 074°08'0 0.0
2017-Oct-03 06:00N 40°41' W 074°08'0 0.0
2017-Oct-03 05:30N 40°41' W 074°08'0 0.0
2017-Oct-03 05:00N 40°41' W 074°08'0 0.0
2017-Oct-03 04:30N 40°41' W 074°08'0 0.0
2017-Oct-03 04:00N 40°41' W 074°08'0 0.0
2017-Oct-03 03:30N 40°41' W 074°08'0 0.0
2017-Oct-03 03:00N 40°41' W 074°08'0 0.0
2017-Oct-03 02:30N 40°41' W 074°08'0 0.0
2017-Oct-03 02:00N 40°41' W 074°08'0 0.0
2017-Oct-03 01:30N 40°41' W 074°08'0 0.0
2017-Oct-03 01:00N 40°41' W 074°08'0 0.0
2017-Oct-03 00:30N 40°41' W 074°08'0 0.0
2017-Oct-03 00:00N 40°41' W 074°08'0 0.0
2017-Oct-02 23:30N 40°41' W 074°08'0 0.0
2017-Oct-02 23:00N 40°41' W 074°08'0 0.0
2017-Oct-02 22:30N 40°41' W 074°08'0 0.0
2017-Oct-02 22:00N 40°41' W 074°08'0 0.0
2017-Oct-02 21:30N 40°41' W 074°08'0 0.0
2017-Oct-02 21:00N 40°41' W 074°08'0 0.0
2017-Oct-02 20:30N 40°41' W 074°08'0 0.0
2017-Oct-02 20:00N 40°41' W 074°08'0 0.0
2017-Oct-02 19:30N 40°41' W 074°08'0 0.0
2017-Oct-02 19:00N 40°41' W 074°08'0 0.0
2017-Oct-02 18:30N 40°41' W 074°08'0 0.0
2017-Oct-02 18:00N 40°41' W 074°08'0 0.0
2017-Oct-02 17:30N 40°41' W 074°08'0 0.0
2017-Oct-02 17:00N 40°41' W 074°08'0 0.0
2017-Oct-02 16:30N 40°41' W 074°08'0 0.0
2017-Oct-02 16:00N 40°41' W 074°08'0 0.0
2017-Oct-02 15:30N 40°41' W 074°08'0 0.0
2017-Oct-02 15:00N 40°41' W 074°08'0 0.0
2017-Oct-02 14:30N 40°41' W 074°08'0 0.0
2017-Oct-02 14:00N 40°41' W 074°08'0 0.0
2017-Oct-02 13:30N 40°41' W 074°08'0 0.0
2017-Oct-02 13:00N 40°41' W 074°08'0 0.0
2017-Oct-02 12:30N 40°41' W 074°08'0 0.0
2017-Oct-02 12:00N 40°41' W 074°08'0 0.0
2017-Oct-02 11:30N 40°41' W 074°08'0 0.0
2017-Oct-02 11:00N 40°41' W 074°08'0 0.0
2017-Oct-02 10:30N 40°41' W 074°08'0 0.0
2017-Oct-02 10:00N 40°41' W 074°08'0 0.0
2017-Oct-02 09:30N 40°41' W 074°08'0 0.0
2017-Oct-02 09:00N 40°41' W 074°08'0 0.0
2017-Oct-02 08:30N 40°41' W 074°08'0 0.0
2017-Oct-02 08:00N 40°41' W 074°08'0 0.0
2017-Oct-02 07:30N 40°41' W 074°08'0 0.0
2017-Oct-02 07:00N 40°41' W 074°08'0 0.0
2017-Oct-02 06:30N 40°41' W 074°08'0 0.0
2017-Oct-02 06:00N 40°41' W 074°08'0 0.0
2017-Oct-02 05:30N 40°41' W 074°08'0 0.0
2017-Oct-02 05:00N 40°41' W 074°08'0 0.0
2017-Oct-02 04:30N 40°41' W 074°08'0 0.0
2017-Oct-02 04:00N 40°41' W 074°08'0 0.0
2017-Oct-02 03:30N 40°41' W 074°08'0 0.0
2017-Oct-02 03:00N 40°41' W 074°08'0 0.0
2017-Oct-02 02:30N 40°41' W 074°08'0 0.0
2017-Oct-02 02:00N 40°41' W 074°08'0 0.0
2017-Oct-02 01:30N 40°41' W 074°08'0 0.0
2017-Oct-02 01:00N 40°41' W 074°08'0 0.0
2017-Oct-02 00:30N 40°41' W 074°08'0 0.0
2017-Oct-02 00:00N 40°41' W 074°08'0 0.0
2017-Oct-01 23:30N 40°41' W 074°08'0 0.0
2017-Oct-01 23:00N 40°41' W 074°08'0 0.0
2017-Oct-01 22:30N 40°41' W 074°08'0 0.0
2017-Oct-01 22:00N 40°41' W 074°08'0 0.0
2017-Oct-01 21:30N 40°41' W 074°08'0 0.0
2017-Oct-01 21:00N 40°41' W 074°08'0 0.0
2017-Oct-01 20:30N 40°41' W 074°08'0 0.0
2017-Oct-01 20:00N 40°41' W 074°08'0 0.0
2017-Oct-01 19:30N 40°41' W 074°08'0 0.0
2017-Oct-01 19:00N 40°41' W 074°08'0 0.0
2017-Oct-01 18:30N 40°41' W 074°08'0 0.0
2017-Oct-01 18:00N 40°41' W 074°08'0 0.0
2017-Oct-01 17:30N 40°41' W 074°08'0 0.0
2017-Oct-01 17:00N 40°41' W 074°08'0 0.0
2017-Oct-01 16:30N 40°41' W 074°08'0 0.0
2017-Oct-01 16:00N 40°41' W 074°08'0 0.0
2017-Oct-01 15:30N 40°41' W 074°08'0 0.0
2017-Oct-01 15:00N 40°41' W 074°08'0 0.0
2017-Oct-01 14:30N 40°41' W 074°08'0 0.0
2017-Oct-01 14:00N 40°41' W 074°08'0 0.0
2017-Oct-01 13:30N 40°41' W 074°08'0 0.0
2017-Oct-01 13:00N 40°41' W 074°08'0 0.6
2017-Oct-01 12:30N 40°41' W 074°08'2 4.3
2017-Oct-01 12:00N 40°39' W 074°09'2 4.5
2017-Oct-01 11:30N 40°39' W 074°06'2 4.7
2017-Oct-01 11:00N 40°41' W 074°04'0 0.9
2017-Oct-01 10:30N 40°41' W 074°04'0 0.0
2017-Oct-01 10:00N 40°41' W 074°04'0 0.0
2017-Oct-01 09:30N 40°41' W 074°04'0 0.0
2017-Oct-01 09:00N 40°41' W 074°04'0 0.0
2017-Oct-01 08:30N 40°41' W 074°04'0 0.0
2017-Oct-01 08:00N 40°41' W 074°04'0 0.0
2017-Oct-01 07:30N 40°41' W 074°04'0 0.0
2017-Oct-01 07:00N 40°41' W 074°04'0 0.0
2017-Oct-01 06:30N 40°41' W 074°04'0 0.0
2017-Oct-01 06:00N 40°41' W 074°04'0 0.0
2017-Oct-01 05:30N 40°41' W 074°04'0 0.0
2017-Oct-01 05:00N 40°41' W 074°04'0 0.0
2017-Oct-01 04:30N 40°41' W 074°04'0 0.0
2017-Oct-01 04:00N 40°41' W 074°04'0 0.0
2017-Oct-01 03:30N 40°41' W 074°04'0 0.0
2017-Oct-01 03:00N 40°41' W 074°04'0 0.0
2017-Sep-30 02:00N 40°41' W 074°04'0 0.0
2017-Sep-30 01:30N 40°41' W 074°04'0 0.0
2017-Sep-30 01:00N 40°41' W 074°04'0 0.0
2017-Sep-30 00:30N 40°41' W 074°04'0 0.0
2017-Sep-30 00:00N 40°41' W 074°04'0 0.0
2017-Sep-29 23:30N 40°41' W 074°04'0 0.0
2017-Sep-29 23:00N 40°41' W 074°04'0 0.0
2017-Sep-29 22:30N 40°41' W 074°04'0 0.0
2017-Sep-29 22:00N 40°41' W 074°04'0 0.0
2017-Sep-29 21:30N 40°41' W 074°04'0 0.0
2017-Sep-29 21:00N 40°41' W 074°04'0 0.0
2017-Sep-29 20:31N 40°41' W 074°04'0 0.0
2017-Sep-29 20:00N 40°41' W 074°04'0 0.0
2017-Sep-29 19:30N 40°41' W 074°04'0 0.0
2017-Sep-29 19:00N 40°41' W 074°04'0 0.0
2017-Sep-29 18:30N 40°41' W 074°04'0 0.0
2017-Sep-29 18:00N 40°41' W 074°04'0 0.0
2017-Sep-29 17:30N 40°41' W 074°04'0 0.0
2017-Sep-29 17:00N 40°41' W 074°04'0 0.0
2017-Sep-29 16:30N 40°41' W 074°04'0 0.0
2017-Sep-29 16:00N 40°41' W 074°04'0 0.0
2017-Sep-29 15:30N 40°41' W 074°04'0 0.0
2017-Sep-29 15:00N 40°41' W 074°04'0 0.0
2017-Sep-29 14:30N 40°41' W 074°04'0 0.0
2017-Sep-29 14:00N 40°41' W 074°04'0 0.0
2017-Sep-29 13:30N 40°41' W 074°04'0 0.0
2017-Sep-29 13:00N 40°41' W 074°04'0 0.0
2017-Sep-29 12:30N 40°41' W 074°04'0 0.0
2017-Sep-29 12:01N 40°41' W 074°04'0 0.0
2017-Sep-29 11:30N 40°41' W 074°04'0 0.0
2017-Sep-29 11:00N 40°41' W 074°04'0 0.0
2017-Sep-29 10:30N 40°41' W 074°04'0 0.0
2017-Sep-29 10:00N 40°41' W 074°04'0 0.0
2017-Sep-29 09:30N 40°41' W 074°04'0 0.0
2017-Sep-29 09:00N 40°41' W 074°04'0 0.0
2017-Sep-29 08:30N 40°41' W 074°04'0 0.0
2017-Sep-29 08:00N 40°41' W 074°04'0 0.0
2017-Sep-29 07:30N 40°41' W 074°04'0 0.0
2017-Sep-29 07:00N 40°41' W 074°04'0 0.0
2017-Sep-29 06:31N 40°41' W 074°04'0 0.0
2017-Sep-29 06:00N 40°41' W 074°04'0 0.0
2017-Sep-29 05:31N 40°41' W 074°04'0 0.0
2017-Sep-29 05:00N 40°41' W 074°04'0 0.0
2017-Sep-29 04:30N 40°41' W 074°04'0 0.0
2017-Sep-29 04:00N 40°41' W 074°04'0 0.0
2017-Sep-29 03:30N 40°41' W 074°04'0 0.0
2017-Sep-29 03:00N 40°41' W 074°04'0 0.0
2017-Sep-29 02:30N 40°41' W 074°04'0 0.0
2017-Sep-29 02:00N 40°41' W 074°04'0 0.0
2017-Sep-29 01:30N 40°41' W 074°04'0 0.0
2017-Sep-29 01:00N 40°41' W 074°04'0 0.0
2017-Sep-29 00:30N 40°41' W 074°04'0 0.0
2017-Sep-29 00:01N 40°41' W 074°04'0 0.0
2017-Sep-28 23:30N 40°41' W 074°04'0 0.0
2017-Sep-28 23:00N 40°41' W 074°04'0 0.0
2017-Sep-28 22:30N 40°41' W 074°04'0 0.0
2017-Sep-28 22:00N 40°41' W 074°04'0 0.0
2017-Sep-28 21:30N 40°41' W 074°04'0 0.0
2017-Sep-28 21:00N 40°41' W 074°04'0 0.0
2017-Sep-28 20:30N 40°41' W 074°04'0 0.0
2017-Sep-28 20:01N 40°41' W 074°04'0 0.0
2017-Sep-28 19:30N 40°41' W 074°04'0 0.0
2017-Sep-28 19:00N 40°41' W 074°04'0 0.0
2017-Sep-28 18:30N 40°41' W 074°04'0 0.0
2017-Sep-28 18:00N 40°41' W 074°04'0 0.0
2017-Sep-28 17:30N 40°41' W 074°04'0 0.0
2017-Sep-28 17:00N 40°41' W 074°04'0 0.0
2017-Sep-28 16:30N 40°41' W 074°04'0 0.0
2017-Sep-28 16:00N 40°41' W 074°04'0 0.0
2017-Sep-28 15:30N 40°41' W 074°04'0 0.0
2017-Sep-28 15:00N 40°41' W 074°04'0 0.0
2017-Sep-28 14:30N 40°41' W 074°04'0 0.0
2017-Sep-28 14:00N 40°41' W 074°04'0 0.0
2017-Sep-28 13:30N 40°41' W 074°04'0 0.0
2017-Sep-28 13:00N 40°41' W 074°04'0 0.0
2017-Sep-28 12:30N 40°41' W 074°04'0 0.0
2017-Sep-28 12:00N 40°41' W 074°04'0 0.0
2017-Sep-28 11:30N 40°41' W 074°04'0 0.0
2017-Sep-28 11:00N 40°41' W 074°04'0 0.0
2017-Sep-28 10:30N 40°41' W 074°04'0 0.0
2017-Sep-28 10:00N 40°41' W 074°04'0 0.0
2017-Sep-28 09:30N 40°41' W 074°04'0 0.0
2017-Sep-28 09:00N 40°41' W 074°04'0 0.0
2017-Sep-28 08:30N 40°41' W 074°04'0 0.0
2017-Sep-28 08:00N 40°41' W 074°04'0 0.0
2017-Sep-28 07:30N 40°41' W 074°04'0 0.0
2017-Sep-28 07:00N 40°41' W 074°04'0 0.0
2017-Sep-28 06:30N 40°41' W 074°04'0 0.0
2017-Sep-28 06:00N 40°41' W 074°04'0 0.0
2017-Sep-28 05:30N 40°41' W 074°04'0 0.0
2017-Sep-28 05:00N 40°41' W 074°04'0 0.0
2017-Sep-28 04:30N 40°41' W 074°04'0 0.0
2017-Sep-28 04:00N 40°41' W 074°04'0 0.0
2017-Sep-28 03:31N 40°41' W 074°04'0 0.0
2017-Sep-28 03:00N 40°41' W 074°04'0 0.0
2017-Sep-28 02:30N 40°41' W 074°04'0 0.0
2017-Sep-28 02:00N 40°41' W 074°04'0 0.0
2017-Sep-28 01:30N 40°41' W 074°04'0 0.0
2017-Sep-28 01:00N 40°41' W 074°04'0 0.0
2017-Sep-28 00:30N 40°41' W 074°04'0 0.0
2017-Sep-28 00:01N 40°41' W 074°04'0 0.0
2017-Sep-27 23:30N 40°41' W 074°04'0 0.0
2017-Sep-27 23:01N 40°41' W 074°04'0 0.0
2017-Sep-27 22:30N 40°41' W 074°04'0 0.1
2017-Sep-27 22:00N 40°41' W 074°04'0 0.0
2017-Sep-27 21:30N 40°41' W 074°04'0 0.0
2017-Sep-27 21:00N 40°41' W 074°04'0 0.0
2017-Sep-27 20:30N 40°41' W 074°04'0 0.0
2017-Sep-27 20:00N 40°41' W 074°04'0 0.0
2017-Sep-27 19:30N 40°41' W 074°04'0 0.0
2017-Sep-27 19:00N 40°41' W 074°04'0 0.0
2017-Sep-27 18:30N 40°41' W 074°04'0 0.0
2017-Sep-27 18:00N 40°41' W 074°04'0 0.0
2017-Sep-27 17:30N 40°41' W 074°04'0 0.0
2017-Sep-27 17:00N 40°41' W 074°04'0 0.0
2017-Sep-27 16:30N 40°41' W 074°04'0 0.0
2017-Sep-27 16:00N 40°41' W 074°04'0 0.0
2017-Sep-27 15:30N 40°41' W 074°04'0 0.0
2017-Sep-27 15:00N 40°41' W 074°04'0 0.0
2017-Sep-27 14:30N 40°41' W 074°04'0 0.0
2017-Sep-27 14:00N 40°41' W 074°04'0 0.0
2017-Sep-27 13:30N 40°41' W 074°04'0 0.0
2017-Sep-27 13:00N 40°41' W 074°04'0 0.0
2017-Sep-27 12:30N 40°41' W 074°04'0 0.0
2017-Sep-27 12:00N 40°41' W 074°04'0 0.0
2017-Sep-27 11:30N 40°41' W 074°04'0 0.0
2017-Sep-27 11:00N 40°41' W 074°04'0 0.0
2017-Sep-27 10:30N 40°41' W 074°04'0 0.0
2017-Sep-27 10:00N 40°41' W 074°04'0 0.0
2017-Sep-27 09:30N 40°41' W 074°04'0 0.0
2017-Sep-27 09:00N 40°41' W 074°04'0 0.0
2017-Sep-27 08:30N 40°41' W 074°04'0 0.6
2017-Sep-27 08:00N 40°41' W 074°04'3 5.1
2017-Sep-27 07:30N 40°38' W 074°03'2 3.3
2017-Sep-27 07:00N 40°37' W 074°03'4 7.6
2017-Sep-27 06:30N 40°33' W 074°02'3 5.5
2017-Sep-27 06:00N 40°31' W 073°59'4 7.9
2017-Sep-27 05:30N 40°29' W 073°55'5 9.1
2017-Sep-27 05:01N 40°28' W 073°49'4 7.3
2017-Sep-27 04:30N 40°28' W 073°44'4 8.9
2017-Sep-27 04:00N 40°29' W 073°38'0 0.9
2017-Sep-27 03:29N 40°30' W 073°39'0 0.1
2017-Sep-27 02:59N 40°30' W 073°39'0 0.0
2017-Sep-27 02:29N 40°30' W 073°39'0 0.0
2017-Sep-27 01:59N 40°30' W 073°39'0 0.0
2017-Sep-27 01:20N 40°30' W 073°39'0 0.0
2017-Sep-27 00:59N 40°30' W 073°39'0 0.1
2017-Sep-27 00:23N 40°30' W 073°39'0 0.1
2017-Sep-26 23:59N 40°30' W 073°39'0 0.1
2017-Sep-26 23:08N 40°30' W 073°38'0 0.1
2017-Sep-26 22:53N 40°30' W 073°38'0 0.0
2017-Sep-26 22:29N 40°30' W 073°38'0 0.0
2017-Sep-26 21:53N 40°30' W 073°38'0 0.1
2017-Sep-26 21:11N 40°30' W 073°38'0 0.1
2017-Sep-26 20:59N 40°30' W 073°38'0 0.1
2017-Sep-26 20:29N 40°30' W 073°38'0 0.1
2017-Sep-26 19:59N 40°30' W 073°38'0 0.0
2017-Sep-26 19:29N 40°30' W 073°38'0 0.1
2017-Sep-26 18:59N 40°30' W 073°38'0 0.0
2017-Sep-26 14:17N 40°30' W 073°39'0 0.1
2017-Sep-26 13:53N 40°30' W 073°39'0 0.0
2017-Sep-26 13:23N 40°30' W 073°39'0 0.0
2017-Sep-26 12:59N 40°30' W 073°39'0 0.0
2017-Sep-26 12:29N 40°30' W 073°39'0 0.0
2017-Sep-26 11:56N 40°30' W 073°39'0 0.0
2017-Sep-26 11:26N 40°30' W 073°39'0 0.0
2017-Sep-26 10:38N 40°30' W 073°39'0 0.0
2017-Sep-26 10:29N 40°30' W 073°39'0 0.1
2017-Sep-26 09:32N 40°30' W 073°38'0 0.1
2017-Sep-26 09:20N 40°30' W 073°38'0 0.0
2017-Sep-26 08:44N 40°30' W 073°38'0 0.0
2017-Sep-26 08:26N 40°30' W 073°38'0 0.2
2017-Sep-26 07:44N 40°30' W 073°38'0 0.2
2017-Sep-26 07:26N 40°30' W 073°38'0 0.1
2017-Sep-26 06:59N 40°30' W 073°38'0 0.1
2017-Sep-26 06:20N 40°30' W 073°38'0 0.0
2017-Sep-26 05:59N 40°30' W 073°38'0 0.0
2017-Sep-26 05:29N 40°30' W 073°39'0 0.1
2017-Sep-26 04:59N 40°30' W 073°39'0 0.0
2017-Sep-26 04:29N 40°30' W 073°39'0 0.0
2017-Sep-26 03:53N 40°30' W 073°39'0 0.0
2017-Sep-26 03:29N 40°30' W 073°39'0 0.0
2017-Sep-26 02:59N 40°30' W 073°39'0 0.0
2017-Sep-26 02:14N 40°30' W 073°39'0 0.0
2017-Sep-26 00:38N 40°30' W 073°39'0 0.0
2017-Sep-26 00:26N 40°30' W 073°39'0 0.0
2017-Sep-25 23:59N 40°30' W 073°39'0 0.0
2017-Sep-25 23:29N 40°30' W 073°38'0 0.0
2017-Sep-25 22:05N 40°30' W 073°38'0 0.0
2017-Sep-25 21:59N 40°30' W 073°38'0 0.1
2017-Sep-25 21:29N 40°30' W 073°38'0 0.0
2017-Sep-25 20:59N 40°30' W 073°38'0 0.0
2017-Sep-25 20:26N 40°30' W 073°38'0 0.1
2017-Sep-25 19:59N 40°30' W 073°38'0 0.0
2017-Sep-25 19:26N 40°30' W 073°38'0 0.0
2017-Sep-25 18:59N 40°30' W 073°38'0 0.0
2017-Sep-25 18:29N 40°30' W 073°38'0 0.0
2017-Sep-25 17:50N 40°30' W 073°38'0 0.0
2017-Sep-25 17:26N 40°30' W 073°38'0 0.0
2017-Sep-25 16:02N 40°30' W 073°38'0 0.0
2017-Sep-25 15:59N 40°30' W 073°38'0 0.0
2017-Sep-25 15:23N 40°30' W 073°39'0 0.0
2017-Sep-25 14:53N 40°30' W 073°39'0 0.0
2017-Sep-25 13:50N 40°30' W 073°39'0 0.0
2017-Sep-25 13:26N 40°30' W 073°39'0 0.0
2017-Sep-25 12:59N 40°30' W 073°39'0 0.0
2017-Sep-25 10:23N 40°30' W 073°38'0 0.1
2017-Sep-25 09:35N 40°30' W 073°38'0 0.0
2017-Sep-25 09:08N 40°30' W 073°38'0 0.0
2017-Sep-25 07:23N 40°30' W 073°38'0 0.1
2017-Sep-25 06:59N 40°30' W 073°38'0 0.1
2017-Sep-25 06:29N 40°30' W 073°38'0 0.1
2017-Sep-25 05:59N 40°30' W 073°38'0 0.1
2017-Sep-25 05:23N 40°30' W 073°38'0 0.1
2017-Sep-25 04:47N 40°30' W 073°38'0 0.0
2017-Sep-25 04:29N 40°30' W 073°38'0 0.0
2017-Sep-25 03:59N 40°30' W 073°38'0 0.0
2017-Sep-25 03:29N 40°30' W 073°38'0 0.0
2017-Sep-25 02:59N 40°30' W 073°38'0 0.0
2017-Sep-25 02:26N 40°30' W 073°38'0 0.0
2017-Sep-25 01:32N 40°30' W 073°38'0 0.0
2017-Sep-25 01:11N 40°30' W 073°38'0 0.0
2017-Sep-25 00:59N 40°30' W 073°38'0 0.0
2017-Sep-25 00:29N 40°30' W 073°38'0 0.0
2017-Sep-24 23:59N 40°30' W 073°39'0 0.0
2017-Sep-24 23:26N 40°30' W 073°38'0 0.0
2017-Sep-24 22:53N 40°30' W 073°39'0 0.0
2017-Sep-24 22:29N 40°30' W 073°38'0 0.2
2017-Sep-24 21:59N 40°30' W 073°38'0 0.1
2017-Sep-24 21:29N 40°30' W 073°38'0 0.1
2017-Sep-24 19:26N 40°30' W 073°38'  

Dump ship's entire track history